ESNN/SDL METAR and TAF weather

Enter ICAO airport designator
Station Type Date Time Source
ESNN METAR 2019/02/20 06:50 UTC NOAA

ESNN 200650Z 33019KT 9999 FEW049 M03/M12 Q1004 R16/72//81


Station Type Date Time Source
ESNN Decoded METAR 2019/02/20 06:50 UTC NOAA

Sundsvall-Harnosand Flygplats, Sweden (ESNN) 62-32N 017-27E 10M
Feb 20, 2019 - 01:50 AM EST / 2019.02.20 0650 UTC
Wind: from the NNW (330 degrees) at 22 MPH (19 KT):0
Visibility: greater than 7 mile(s):0
Sky conditions: mostly clear
Temperature: 26 F (-3 C)
Windchill: 12 F (-11 C):1
Dew Point: 10 F (-12 C)
Relative Humidity: 49%
Pressure (altimeter): 29.65 in. Hg (1004 hPa)
ob: ESNN 200650Z 33019KT 9999 FEW049 M03/M12 Q1004 R16/72//81
cycle: 7

Station Type Date Time Source
ESNN TAF 2016/05/29 09:33 UTC NOAA

TAF TAF ESNN 290830Z 2909/3018 07006KT 9999 SCT045
BECMG 2913/2915 14010KT


Example: see airport list